createdAt,value
2022-09-03T00:00:09.440Z,77.18
2022-09-03T00:03:06.421Z,77.11
2022-09-03T00:06:30.730Z,77.31
2022-09-03T00:09:24.789Z,76.88
2022-09-03T00:12:26.900Z,77.10
2022-09-03T00:15:12.276Z,77.38
2022-09-03T00:18:04.842Z,78.40
2022-09-03T00:20:50.955Z,78.46
2022-09-03T00:23:30.369Z,77.24
2022-09-03T00:26:12.357Z,77.00
2022-09-03T00:29:06.608Z,77.15
2022-09-03T00:31:47.605Z,77.39
2022-09-03T00:34:37.997Z,77.61
2022-09-03T00:37:05.554Z,77.19
2022-09-03T00:39:33.810Z,77.53
2022-09-03T00:42:37.523Z,77.74
2022-09-03T00:45:57.830Z,77.40
2022-09-03T00:48:48.664Z,77.38
2022-09-03T00:51:33.944Z,77.05
2022-09-03T00:55:01.512Z,77.35
2022-09-03T00:58:13.877Z,77.69
2022-09-03T01:00:45.629Z,77.50
2022-09-03T01:04:06.509Z,76.95
2022-09-03T01:07:10.421Z,77.38
2022-09-03T01:10:16.381Z,76.90
2022-09-03T01:13:30.000Z,76.65
2022-09-03T01:16:39.847Z,77.14
2022-09-03T01:20:02.959Z,77.29
2022-09-03T01:23:14.379Z,77.15
2022-09-03T01:26:35.408Z,77.21
2022-09-03T01:29:35.264Z,77.08
2022-09-03T01:32:34.797Z,77.38
2022-09-03T01:35:47.486Z,77.51
2022-09-03T01:38:47.223Z,77.77
2022-09-03T01:42:21.304Z,77.44
2022-09-03T01:45:22.569Z,77.27
2022-09-03T01:48:42.212Z,77.57
2022-09-03T01:51:23.169Z,78.08
2022-09-03T01:54:22.013Z,78.63
2022-09-03T01:57:46.041Z,78.27
2022-09-03T02:00:20.640Z,78.17
2022-09-03T02:02:54.244Z,78.86
2022-09-03T02:05:29.201Z,78.41
2022-09-03T02:08:07.350Z,78.34
2022-09-03T02:10:53.685Z,78.49
2022-09-03T02:13:51.140Z,78.32
2022-09-03T02:16:28.384Z,78.46
2022-09-03T02:19:03.349Z,78.49
2022-09-03T02:21:40.794Z,78.69
2022-09-03T02:24:09.439Z,78.45
2022-09-03T02:26:37.059Z,78.70
2022-09-03T02:29:05.495Z,78.19
2022-09-03T02:31:33.809Z,78.96
2022-09-03T02:34:01.259Z,78.65
2022-09-03T02:36:46.555Z,78.93
2022-09-03T02:39:16.707Z,79.06
2022-09-03T02:41:44.833Z,78.81
2022-09-03T02:44:33.157Z,79.40
2022-09-03T02:47:06.924Z,78.82
2022-09-03T02:49:35.349Z,79.14
2022-09-03T02:52:09.701Z,78.98
2022-09-03T02:54:40.041Z,78.88
2022-09-03T02:57:16.089Z,79.11
2022-09-03T02:59:51.122Z,79.01
2022-09-03T03:02:18.540Z,78.96
2022-09-03T03:04:45.940Z,79.27
2022-09-03T03:07:14.107Z,78.78
2022-09-03T03:09:42.416Z,78.95
2022-09-03T03:12:10.370Z,79.35
2022-09-03T03:14:37.782Z,79.17
2022-09-03T03:17:05.729Z,79.32
2022-09-03T03:19:33.157Z,78.95
2022-09-03T03:22:00.789Z,78.75
2022-09-03T03:24:28.507Z,79.31
2022-09-03T03:26:59.809Z,79.40
2022-09-03T03:29:27.936Z,79.30
2022-09-03T03:31:55.235Z,79.57
2022-09-03T03:34:23.369Z,79.88
2022-09-03T03:36:50.764Z,79.51
2022-09-03T03:39:18.300Z,79.52
2022-09-03T03:41:45.663Z,79.42
2022-09-03T03:44:12.977Z,79.56
2022-09-03T03:46:41.929Z,79.43
2022-09-03T03:49:11.100Z,79.71
2022-09-03T03:51:39.313Z,79.76
2022-09-03T03:54:06.933Z,79.52
2022-09-03T03:56:35.478Z,79.71
2022-09-03T03:59:03.611Z,79.75
2022-09-03T04:01:31.116Z,79.82
2022-09-03T04:04:01.807Z,79.90
2022-09-03T04:06:29.592Z,79.76
2022-09-03T04:08:57.031Z,79.53
2022-09-03T04:11:27.058Z,79.30
2022-09-03T04:13:54.897Z,79.29
2022-09-03T04:16:27.416Z,79.75
2022-09-03T04:18:56.800Z,79.68
2022-09-03T04:21:31.551Z,80.19
2022-09-03T04:23:59.473Z,79.80
2022-09-03T04:26:34.274Z,79.64
2022-09-03T04:29:07.223Z,79.62
2022-09-03T04:31:38.752Z,79.71
2022-09-03T04:34:07.418Z,79.59
2022-09-03T04:36:35.177Z,79.46
2022-09-03T04:39:02.863Z,79.20
2022-09-03T04:41:31.894Z,79.44
2022-09-03T04:44:00.394Z,79.02
2022-09-03T04:46:35.367Z,79.10
2022-09-03T04:49:03.018Z,78.47
2022-09-03T04:51:31.809Z,78.51
2022-09-03T04:54:02.542Z,78.76
2022-09-03T04:56:35.112Z,78.66
2022-09-03T04:59:09.586Z,78.75
2022-09-03T05:01:40.586Z,79.07
2022-09-03T05:04:08.988Z,78.83
2022-09-03T05:06:37.657Z,79.14
2022-09-03T05:09:06.010Z,78.84
2022-09-03T05:11:36.272Z,78.64
2022-09-03T05:14:05.873Z,78.91
2022-09-03T05:16:33.379Z,78.92
2022-09-03T05:19:01.435Z,78.53
2022-09-03T05:21:30.732Z,78.54
2022-09-03T05:24:01.860Z,79.08
2022-09-03T05:26:37.129Z,78.44
2022-09-03T05:29:07.813Z,78.30
2022-09-03T05:31:39.575Z,78.61
2022-09-03T05:34:07.754Z,78.59
2022-09-03T05:36:38.313Z,78.42
2022-09-03T05:39:06.503Z,78.71
2022-09-03T05:41:34.465Z,78.89
2022-09-03T05:44:02.579Z,78.59
2022-09-03T05:46:35.077Z,78.82
2022-09-03T05:49:06.438Z,78.97
2022-09-03T05:51:36.693Z,79.49
2022-09-03T05:54:04.266Z,78.89
2022-09-03T05:56:35.697Z,78.69
2022-09-03T05:59:09.367Z,79.06
2022-09-03T06:01:50.937Z,78.72
2022-09-03T06:04:20.393Z,78.85
2022-09-03T06:06:49.030Z,79.37
2022-09-03T06:09:23.288Z,78.50
2022-09-03T06:11:54.343Z,78.47
2022-09-03T06:14:25.244Z,78.47
2022-09-03T06:16:53.089Z,78.30
2022-09-03T06:19:20.999Z,78.41
2022-09-03T06:21:48.891Z,78.49
2022-09-03T06:24:26.472Z,78.76
2022-09-03T06:26:59.346Z,78.16
2022-09-03T06:29:27.644Z,78.80
2022-09-03T06:31:55.085Z,78.11
2022-09-03T06:34:25.561Z,78.19
2022-09-03T06:36:54.554Z,78.43
2022-09-03T06:39:22.421Z,78.19
2022-09-03T06:41:51.847Z,77.89
2022-09-03T06:44:19.320Z,77.86
2022-09-03T06:46:48.502Z,78.00
2022-09-03T06:49:15.853Z,77.78
2022-09-03T06:51:44.075Z,77.15
2022-09-03T06:54:13.262Z,77.40
2022-09-03T06:56:41.985Z,77.31
2022-09-03T06:59:15.224Z,74.70
2022-09-03T07:01:46.159Z,76.32
2022-09-03T07:04:20.275Z,76.05
2022-09-03T07:06:47.809Z,76.47
2022-09-03T07:09:18.150Z,76.67
2022-09-03T07:11:49.388Z,76.94
2022-09-03T07:14:22.305Z,76.05
2022-09-03T07:16:50.688Z,76.41
2022-09-03T07:19:18.348Z,75.04
2022-09-03T07:21:49.988Z,75.09
2022-09-03T07:24:22.796Z,73.90
2022-09-03T07:26:50.218Z,74.67
2022-09-03T07:29:21.902Z,74.89
2022-09-03T07:31:51.934Z,74.60
2022-09-03T07:34:22.125Z,74.86
2022-09-03T07:36:51.384Z,74.33
2022-09-03T07:39:19.838Z,74.95
2022-09-03T07:41:47.769Z,74.76
2022-09-03T07:44:19.752Z,74.85
2022-09-03T07:46:51.944Z,74.86
2022-09-03T07:49:21.732Z,74.35
2022-09-03T07:51:54.305Z,73.74
2022-09-03T07:54:23.572Z,74.50
2022-09-03T07:56:51.394Z,74.79
2022-09-03T07:59:19.250Z,74.53
2022-09-03T08:01:46.572Z,74.60
2022-09-03T08:04:14.137Z,74.61
2022-09-03T08:06:42.286Z,74.85
2022-09-03T08:09:13.930Z,74.94
2022-09-03T08:11:43.761Z,75.36
2022-09-03T08:14:15.435Z,74.60
2022-09-03T08:16:48.081Z,74.64
2022-09-03T08:19:18.424Z,74.89
2022-09-03T08:21:46.149Z,74.80
2022-09-03T08:24:20.916Z,74.93
2022-09-03T08:26:52.132Z,75.08
2022-09-03T08:29:21.467Z,75.28
2022-09-03T08:31:49.295Z,74.66
2022-09-03T08:34:17.803Z,74.72
2022-09-03T08:36:47.273Z,76.13
2022-09-03T08:39:14.776Z,75.90
2022-09-03T08:42:29.147Z,77.34
2022-09-03T08:45:06.630Z,77.70
2022-09-03T08:47:48.290Z,78.18
2022-09-03T08:50:36.044Z,80.69
2022-09-03T08:53:55.965Z,80.13
2022-09-03T08:56:33.026Z,81.13
2022-09-03T08:59:02.200Z,82.46
2022-09-03T09:02:51.039Z,82.33
2022-09-03T09:05:47.064Z,82.29
2022-09-03T09:09:03.054Z,82.04
2022-09-03T09:12:15.963Z,80.84
2022-09-03T09:15:43.237Z,83.55
2022-09-03T09:19:03.352Z,84.61
2022-09-03T09:22:41.228Z,83.62
2022-09-03T09:25:20.528Z,81.29
2022-09-03T09:28:36.156Z,81.49
2022-09-03T09:31:11.617Z,82.65
2022-09-03T09:33:39.384Z,82.63
2022-09-03T09:36:15.368Z,82.57
2022-09-03T09:38:45.556Z,82.55
2022-09-03T09:41:23.369Z,82.73
2022-09-03T09:44:05.704Z,83.14
2022-09-03T09:46:43.124Z,83.02
2022-09-03T09:49:58.602Z,83.11
2022-09-03T09:52:30.273Z,80.69
2022-09-03T09:55:19.190Z,81.89
2022-09-03T09:57:47.331Z,83.65
2022-09-03T10:00:18.781Z,82.78
2022-09-03T10:02:54.755Z,83.20
2022-09-03T10:05:36.795Z,84.01
2022-09-03T10:08:22.023Z,84.15
2022-09-03T10:10:51.832Z,83.45
2022-09-03T10:13:30.789Z,82.26
2022-09-03T10:16:43.315Z,82.06
2022-09-03T10:19:26.216Z,81.55
2022-09-03T10:22:18.862Z,82.06
2022-09-03T10:25:02.888Z,81.49
2022-09-03T10:27:32.139Z,79.37
2022-09-03T10:30:00.730Z,79.15
2022-09-03T10:33:07.116Z,81.28
2022-09-03T10:35:52.716Z,80.50
2022-09-03T10:38:34.591Z,80.70
2022-09-03T10:41:55.832Z,81.60
2022-09-03T10:44:43.681Z,82.07
2022-09-03T10:48:17.309Z,80.53
2022-09-03T10:51:49.488Z,80.24
2022-09-03T10:55:03.939Z,77.19
2022-09-03T10:58:38.338Z,76.42
2022-09-03T11:02:15.290Z,78.87
2022-09-03T11:05:30.529Z,77.51
2022-09-03T11:08:21.957Z,72.81
2022-09-03T11:11:08.764Z,72.06
2022-09-03T11:14:12.249Z,72.16
2022-09-03T11:16:54.245Z,71.27
2022-09-03T11:20:06.519Z,72.80
2022-09-03T11:22:35.000Z,70.87
2022-09-03T11:25:05.589Z,70.31
2022-09-03T11:28:12.780Z,68.99
2022-09-03T11:31:52.945Z,70.77
2022-09-03T11:34:32.266Z,68.01
2022-09-03T11:37:26.280Z,68.01
2022-09-03T11:40:19.368Z,69.91
2022-09-03T11:42:47.385Z,68.09
2022-09-03T11:45:30.174Z,65.49
2022-09-03T11:47:57.781Z,67.26
2022-09-03T11:50:34.543Z,65.25
2022-09-03T11:53:15.118Z,64.66
2022-09-03T11:56:05.198Z,65.61
2022-09-03T11:58:42.960Z,66.68
2022-09-03T12:01:20.748Z,66.29
2022-09-03T12:04:09.756Z,66.64
2022-09-03T12:07:40.595Z,63.49
2022-09-03T12:10:41.751Z,64.69
2022-09-03T12:14:21.330Z,62.90
2022-09-03T12:18:31.967Z,62.95
2022-09-03T12:21:00.166Z,62.23
2022-09-03T12:23:51.035Z,63.71
2022-09-03T12:26:27.552Z,64.92
2022-09-03T12:29:00.872Z,62.80
2022-09-03T12:31:46.760Z,62.37
2022-09-03T12:34:18.636Z,62.72
2022-09-03T12:36:52.148Z,62.93
2022-09-03T12:42:30.880Z,63.48
2022-09-03T12:45:12.728Z,59.20
2022-09-03T12:47:41.994Z,59.98
2022-09-03T12:50:17.075Z,59.73
2022-09-03T12:52:53.782Z,59.27
2022-09-03T12:55:36.830Z,59.63
2022-09-03T12:58:54.342Z,57.68
2022-09-03T13:01:33.456Z,52.88
2022-09-03T13:04:15.269Z,53.71
2022-09-03T13:07:08.275Z,55.25
2022-09-03T13:09:39.889Z,54.99
2022-09-03T13:12:07.856Z,54.88
2022-09-03T13:14:48.273Z,55.42
2022-09-03T13:18:01.983Z,52.11
2022-09-03T13:21:32.589Z,54.83
2022-09-03T13:25:01.983Z,52.33
2022-09-03T13:28:18.956Z,52.27
2022-09-03T13:31:21.662Z,51.18
2022-09-03T13:34:12.928Z,52.83
2022-09-03T13:37:10.143Z,51.66
2022-09-03T13:40:36.249Z,48.60
2022-09-03T13:43:43.536Z,51.45
2022-09-03T13:47:02.577Z,54.10
2022-09-03T13:50:09.206Z,51.62
2022-09-03T13:53:10.504Z,52.50
2022-09-03T13:55:55.828Z,50.74
2022-09-03T13:58:48.920Z,50.56
2022-09-03T14:01:46.074Z,50.66
2022-09-03T14:04:29.169Z,51.53
2022-09-03T14:07:15.756Z,50.68
2022-09-03T14:10:46.541Z,53.16
2022-09-03T14:13:59.490Z,51.62
2022-09-03T14:16:39.802Z,53.10
2022-09-03T14:20:00.540Z,53.05
2022-09-03T14:23:08.785Z,53.27
2022-09-03T14:25:37.108Z,54.65
2022-09-03T14:28:44.435Z,53.71
2022-09-03T14:32:03.445Z,56.08
2022-09-03T14:35:52.839Z,55.60
2022-09-03T14:39:24.566Z,55.87
2022-09-03T14:42:07.823Z,56.33
2022-09-03T14:45:13.367Z,57.96
2022-09-03T14:48:58.248Z,57.36
2022-09-03T14:52:39.423Z,58.65
2022-09-03T14:55:40.692Z,58.63
2022-09-03T14:58:54.059Z,58.90
2022-09-03T15:01:39.451Z,58.72
2022-09-03T15:04:50.259Z,59.01
2022-09-03T15:07:59.113Z,57.82
2022-09-03T15:10:56.397Z,59.80
2022-09-03T15:14:18.679Z,61.75
2022-09-03T15:17:24.664Z,63.96
2022-09-03T15:20:53.359Z,61.60
2022-09-03T15:23:59.916Z,63.47
2022-09-03T15:27:19.298Z,65.53
2022-09-03T15:30:13.191Z,64.98
2022-09-03T15:33:06.855Z,67.56
2022-09-03T15:36:14.996Z,67.98
2022-09-03T15:39:09.322Z,66.40
2022-09-03T15:42:10.347Z,68.71
2022-09-03T15:44:57.086Z,67.00
2022-09-03T15:47:50.719Z,65.91
2022-09-03T15:50:58.942Z,64.38
2022-09-03T15:54:16.386Z,64.08
2022-09-03T15:57:15.591Z,67.11
2022-09-03T16:00:13.245Z,67.05
2022-09-03T16:03:20.388Z,66.37
2022-09-03T16:06:17.237Z,68.02
2022-09-03T16:09:03.223Z,66.43
2022-09-03T16:12:07.424Z,65.28
2022-09-03T16:15:00.864Z,66.09
2022-09-03T16:18:37.376Z,64.80
2022-09-03T16:21:43.505Z,66.83
2022-09-03T16:25:07.408Z,66.17
2022-09-03T16:28:19.743Z,65.94
2022-09-03T16:31:57.273Z,64.93
2022-09-03T16:35:44.020Z,65.30
2022-09-03T16:38:46.697Z,67.37
2022-09-03T16:41:58.316Z,66.40
2022-09-03T16:45:20.301Z,68.75
2022-09-03T16:48:50.813Z,69.44
2022-09-03T16:51:55.349Z,69.32
2022-09-03T16:55:14.737Z,68.93
2022-09-03T16:58:26.961Z,69.52
2022-09-03T17:02:23.687Z,67.18
2022-09-03T17:05:12.501Z,67.01
2022-09-03T17:08:42.561Z,66.77
2022-09-03T17:12:04.833Z,66.51
2022-09-03T17:15:16.843Z,65.96
2022-09-03T17:18:49.889Z,66.50
2022-09-03T17:22:20.675Z,64.90
2022-09-03T17:25:05.789Z,65.26
2022-09-03T17:28:22.691Z,66.11
2022-09-03T17:31:37.386Z,65.64
2022-09-03T17:35:00.881Z,66.15
2022-09-03T17:38:50.821Z,66.05
2022-09-03T17:42:12.558Z,65.69
2022-09-03T17:45:35.214Z,65.59
2022-09-03T17:48:42.186Z,66.41
2022-09-03T17:51:50.442Z,66.70
2022-09-03T17:54:37.184Z,66.65
2022-09-03T17:57:38.240Z,67.32
2022-09-03T18:00:21.992Z,67.35
2022-09-03T18:03:49.688Z,67.85
2022-09-03T18:06:41.802Z,68.89
2022-09-03T18:09:57.412Z,68.86
2022-09-03T18:13:55.524Z,69.98
2022-09-03T18:16:39.624Z,70.47
2022-09-03T18:19:58.543Z,70.72
2022-09-03T18:23:03.070Z,70.10
2022-09-03T18:25:52.270Z,69.68
2022-09-03T18:29:18.165Z,69.81
2022-09-03T18:32:04.173Z,70.36
2022-09-03T18:34:54.992Z,69.94
2022-09-03T18:37:46.468Z,69.78
2022-09-03T18:40:53.840Z,69.23
2022-09-03T18:44:22.158Z,68.51
2022-09-03T18:48:27.067Z,68.20
2022-09-03T18:51:52.451Z,68.78
2022-09-03T18:55:18.303Z,68.20
2022-09-03T18:59:01.117Z,68.30
2022-09-03T19:01:59.805Z,68.68
2022-09-03T19:05:25.628Z,68.65
2022-09-03T19:08:38.853Z,68.22
2022-09-03T19:12:27.716Z,68.84
2022-09-03T19:15:38.982Z,69.15
2022-09-03T19:19:42.196Z,69.07
2022-09-03T19:22:33.067Z,69.96
2022-09-03T19:25:33.940Z,69.87
2022-09-03T19:28:42.656Z,71.32
2022-09-03T19:32:06.436Z,70.34
2022-09-03T19:35:23.557Z,70.87
2022-09-03T19:39:24.351Z,70.32
2022-09-03T19:42:41.928Z,70.83
2022-09-03T19:46:10.440Z,70.93
2022-09-03T19:49:43.869Z,71.28
2022-09-03T19:53:23.371Z,70.93
2022-09-03T19:56:18.360Z,71.10
2022-09-03T19:59:43.376Z,71.72
2022-09-03T20:02:29.810Z,71.67
2022-09-03T20:05:24.992Z,71.29
2022-09-03T20:08:14.717Z,71.59
2022-09-03T20:10:48.893Z,71.51
2022-09-03T20:13:20.687Z,72.51
2022-09-03T20:16:14.602Z,71.47
2022-09-03T20:19:45.636Z,71.49
2022-09-03T20:22:44.357Z,71.89
2022-09-03T20:26:11.416Z,72.04
2022-09-03T20:29:34.092Z,72.25
2022-09-03T20:32:41.715Z,72.31
2022-09-03T20:35:53.455Z,72.02
2022-09-03T20:39:03.835Z,72.49
2022-09-03T20:42:14.366Z,72.96
2022-09-03T20:45:32.683Z,73.21
2022-09-03T20:48:43.318Z,72.91
2022-09-03T20:51:46.087Z,72.85
2022-09-03T20:54:42.578Z,72.80
2022-09-03T20:58:11.393Z,72.81
2022-09-03T21:01:16.544Z,72.60
2022-09-03T21:04:32.417Z,72.64
2022-09-03T21:07:43.167Z,73.36
2022-09-03T21:10:48.013Z,73.22
2022-09-03T21:13:52.728Z,73.38
2022-09-03T21:17:00.179Z,73.30
2022-09-03T21:20:28.604Z,73.15
2022-09-03T21:23:38.276Z,73.58
2022-09-03T21:26:33.924Z,73.70
2022-09-03T21:29:30.877Z,74.11
2022-09-03T21:32:29.699Z,73.66
2022-09-03T21:35:42.832Z,73.71
2022-09-03T21:38:31.388Z,73.91
2022-09-03T21:41:34.724Z,73.81
2022-09-03T21:44:32.918Z,74.32
2022-09-03T21:47:10.545Z,74.34
2022-09-03T21:49:57.447Z,74.57
2022-09-03T21:53:02.909Z,74.08
2022-09-03T21:56:07.865Z,73.99
2022-09-03T21:59:22.469Z,74.00
2022-09-03T22:02:28.802Z,74.40
2022-09-03T22:04:58.665Z,74.51
2022-09-03T22:08:23.164Z,74.15
2022-09-03T22:12:03.701Z,74.32
2022-09-03T22:14:47.935Z,74.05
2022-09-03T22:17:56.923Z,73.78
2022-09-03T22:20:28.629Z,74.36
2022-09-03T22:23:24.804Z,74.28
2022-09-03T22:26:14.511Z,74.04
2022-09-03T22:29:24.504Z,74.30
2022-09-03T22:32:25.363Z,74.09
2022-09-03T22:35:33.811Z,74.15
2022-09-03T22:38:33.074Z,74.42
2022-09-03T22:41:45.935Z,74.46
2022-09-03T22:44:50.961Z,74.06
2022-09-03T22:48:06.389Z,74.22
2022-09-03T22:50:59.288Z,74.52
2022-09-03T22:54:31.968Z,74.64
2022-09-03T22:57:01.347Z,74.80
2022-09-03T22:59:41.512Z,74.62
2022-09-03T23:02:26.420Z,74.76
2022-09-03T23:05:28.083Z,74.52
2022-09-03T23:08:33.732Z,74.73
2022-09-03T23:11:29.971Z,74.69
2022-09-03T23:14:12.389Z,75.04
2022-09-03T23:16:54.354Z,74.64
2022-09-03T23:19:40.878Z,74.57
2022-09-03T23:22:41.713Z,74.56
2022-09-03T23:25:25.643Z,74.70
2022-09-03T23:28:22.061Z,74.92
2022-09-03T23:30:49.756Z,75.29
2022-09-03T23:33:17.166Z,74.80
2022-09-03T23:37:32.415Z,75.42
2022-09-03T23:40:15.284Z,75.16
2022-09-03T23:43:48.205Z,75.20
2022-09-03T23:47:03.649Z,75.45
2022-09-03T23:50:11.968Z,75.44
2022-09-03T23:53:53.619Z,75.60
2022-09-03T23:57:13.032Z,75.33
